Time;durP1;ratioP1;P1;durP2;ratioP2;P2;SDS_P1;SDS_P2;PMS_P1;PMS_P2;Temp;Humidity;BMP_temperature;BMP_pressure;BME280_temperature;BME280_humidity;BME280_pressure;Samples;Min_cycle;Max_cycle;Signal;HPM_P1;HPM_P2
2022/05/19 00:00:22;;;;;;;2.72;2.03;;;;;;;10.46;53.12;99262.44;5121284;27;20070;-40
2022/05/19 00:02:48;;;;;;;5.20;2.73;;;;;;;10.49;53.04;99250.16;5141018;27;20053;-39
2022/05/19 00:05:16;;;;;;;2.55;1.70;;;;;;;10.53;52.47;99250.84;5123042;27;20295;-39
2022/05/19 00:07:43;;;;;;;5.82;1.70;;;;;;;10.52;52.64;99257.81;5137560;27;20042;-40
2022/05/19 00:10:08;;;;;;;2.70;1.77;;;;;;;10.52;52.89;99259.59;5132354;27;20418;-38
2022/05/19 00:12:35;;;;;;;4.43;2.10;;;;;;;10.48;53.01;99242.41;5114551;27;20038;-38
2022/05/19 00:15:01;;;;;;;3.53;1.90;;;;;;;10.36;53.33;99225.59;5138288;27;20038;-40
2022/05/19 00:17:27;;;;;;;3.05;2.13;;;;;;;10.43;52.99;99229.59;5148823;27;20043;-40
2022/05/19 00:19:53;;;;;;;3.75;2.22;;;;;;;10.39;53.55;99237.59;5150492;27;20087;-40
2022/05/19 00:22:20;;;;;;;6.40;2.10;;;;;;;10.35;53.85;99229.09;5149914;27;20118;-41
2022/05/19 00:24:46;;;;;;;4.90;2.20;;;;;;;10.37;53.27;99237.66;5143454;27;20131;-40
2022/05/19 00:27:12;;;;;;;2.53;1.80;;;;;;;10.36;53.41;99240.31;5143898;27;20070;-40
2022/05/19 00:29:37;;;;;;;5.78;2.20;;;;;;;10.44;53.92;99241.69;5151852;27;20030;-40
2022/05/19 00:32:03;;;;;;;4.50;2.25;;;;;;;10.45;53.62;99243.38;5152430;27;20043;-39
2022/05/19 00:34:29;;;;;;;2.95;2.13;;;;;;;10.47;53.32;99251.94;5144515;27;20039;-40
2022/05/19 00:36:59;;;;;;;6.32;2.08;;;;;;;10.49;53.14;99250.16;5103219;28;20398;-40
2022/05/19 00:39:27;;;;;;;4.78;2.10;;;;;;;10.55;53.39;99249.91;5111304;27;20038;-39
2022/05/19 00:42:43;;;;;;;3.95;1.92;;;;;;;10.42;53.88;99233.09;5114716;27;20463;-39
2022/05/19 00:44:41;;;;;;;3.22;1.92;;;;;;;10.47;53.89;99240.72;5122251;27;20149;-39
2022/05/19 00:47:12;;;;;;;3.22;2.00;;;;;;;10.43;54.13;99246.94;5129652;28;20035;-39
2022/05/19 00:49:40;;;;;;;3.55;2.42;;;;;;;10.39;53.91;99248.84;5117335;27;20129;-40
2022/05/19 00:52:29;;;;;;;2.60;1.90;;;;;;;10.36;54.08;99246.38;5134939;27;20413;-40
2022/05/19 00:55:13;;;;;;;4.55;2.22;;;;;;;10.39;54.25;99245.38;5126991;27;20595;-40
2022/05/19 00:58:03;;;;;;;2.92;1.83;;;;;;;10.26;54.10;99239.00;5144066;27;20066;-39
2022/05/19 01:00:29;;;;;;;3.70;1.90;;;;;;;10.25;53.93;99238.16;5118265;27;20421;-38
2022/05/19 01:02:59;;;;;;;3.63;2.53;;;;;;;10.16;54.69;99239.34;5122849;27;20086;-40
2022/05/19 01:05:44;;;;;;;4.22;2.10;;;;;;;10.15;54.70;99232.44;5135675;27;20034;-40
2022/05/19 01:08:18;;;;;;;2.80;1.88;;;;;;;10.16;54.46;99235.91;5137093;27;20031;-40
2022/05/19 01:10:45;;;;;;;3.38;1.65;;;;;;;10.15;54.52;99229.84;5134722;27;20593;-40
2022/05/19 01:13:11;;;;;;;2.47;2.00;;;;;;;10.20;54.55;99242.69;5136427;27;20474;-39
2022/05/19 01:15:40;;;;;;;4.07;1.80;;;;;;;10.27;54.39;99235.47;5120897;27;20056;-38
2022/05/19 01:18:07;;;;;;;1.98;1.45;;;;;;;10.28;54.70;99240.63;5144492;27;20574;-39
2022/05/19 01:20:35;;;;;;;2.85;2.10;;;;;;;10.29;54.49;99244.06;5151805;27;20052;-39
2022/05/19 01:23:11;;;;;;;3.22;1.95;;;;;;;10.36;54.36;99250.72;5148402;27;20039;-39
2022/05/19 01:25:37;;;;;;;3.85;1.88;;;;;;;10.37;54.13;99236.78;5127523;27;20129;-38
2022/05/19 01:28:04;;;;;;;2.15;1.80;;;;;;;10.41;54.21;99235.78;5144368;27;20062;-40
2022/05/19 01:30:30;;;;;;;3.03;1.77;;;;;;;10.44;54.33;99235.66;5153474;27;20041;-39
2022/05/19 01:32:56;;;;;;;4.20;1.80;;;;;;;10.48;54.44;99239.81;5155542;27;20409;-40
2022/05/19 01:35:22;;;;;;;3.53;1.73;;;;;;;10.32;54.40;99217.94;5131730;27;20078;-40
2022/05/19 01:37:48;;;;;;;3.38;1.60;;;;;;;10.49;54.14;99244.09;5116629;27;20035;-40
2022/05/19 01:40:40;;;;;;;2.10;1.50;;;;;;;10.54;53.77;99248.22;5153548;27;20043;-40
2022/05/19 01:43:26;;;;;;;2.70;2.35;;;;;;;10.62;54.20;99248.72;5123176;27;20031;-39
2022/05/19 01:46:30;;;;;;;3.10;1.88;;;;;;;10.71;54.21;99244.06;5118639;27;20050;-39
2022/05/19 01:49:07;;;;;;;2.47;1.67;;;;;;;10.73;53.66;99248.28;5136188;27;20111;-39
2022/05/19 01:51:40;;;;;;;2.35;1.52;;;;;;;10.79;54.07;99237.63;5120312;27;20137;-40
2022/05/19 01:54:20;;;;;;;2.30;1.80;;;;;;;10.82;53.54;99245.31;5132751;27;20065;-40
2022/05/19 01:56:52;;;;;;;6.80;1.80;;;;;;;10.87;54.07;99238.16;5108861;27;20573;-39
2022/05/19 01:59:23;;;;;;;7.97;2.40;;;;;;;10.93;53.59;99240.50;5150845;27;20043;-39
2022/05/19 02:01:59;;;;;;;4.97;2.88;;;;;;;10.95;53.57;99237.81;5126845;27;20041;-39
2022/05/19 02:04:47;;;;;;;4.63;1.95;;;;;;;10.92;53.19;99245.75;5134773;27;20051;-39
2022/05/19 02:07:14;;;;;;;2.65;1.70;;;;;;;10.96;53.34;99244.72;5153232;27;20043;-40
2022/05/19 02:09:51;;;;;;;3.65;1.70;;;;;;;10.98;53.44;99240.31;5118947;27;20042;-39
2022/05/19 02:12:17;;;;;;;2.72;1.80;;;;;;;11.08;53.52;99243.34;5121715;27;20039;-40
2022/05/19 02:14:48;;;;;;;3.38;1.80;;;;;;;11.10;53.06;99242.34;5119348;27;20558;-40
2022/05/19 02:17:19;;;;;;;3.55;1.55;;;;;;;10.93;53.27;99218.84;5118484;27;20038;-39
2022/05/19 02:19:47;;;;;;;2.97;1.90;;;;;;;11.16;53.55;99243.84;5109711;27;20167;-39
2022/05/19 02:22:16;;;;;;;6.43;2.78;;;;;;;11.10;53.19;99216.34;5135324;27;20092;-39
2022/05/19 02:24:54;;;;;;;2.70;1.73;;;;;;;11.29;53.23;99242.41;5135555;27;20035;-40
2022/05/19 02:27:41;;;;;;;2.05;1.63;;;;;;;11.35;52.47;99242.13;5126315;27;20122;-39
2022/05/19 02:30:10;;;;;;;3.10;1.58;;;;;;;11.23;52.62;99238.31;5082865;27;20471;-39
2022/05/19 02:32:36;;;;;;;3.58;1.83;;;;;;;11.21;52.85;99252.28;5120972;27;20035;-40
2022/05/19 02:35:06;;;;;;;3.53;2.25;;;;;;;11.28;53.46;99245.91;5140733;27;20034;-39
2022/05/19 02:37:33;;;;;;;3.40;1.50;;;;;;;11.27;53.42;99237.25;5154272;27;20035;-40
2022/05/19 02:39:59;;;;;;;3.47;1.70;;;;;;;11.23;53.14;99248.72;5152182;27;20038;-39
2022/05/19 02:42:25;;;;;;;1.88;1.60;;;;;;;11.27;53.44;99237.25;5142923;27;20046;-40
2022/05/19 02:44:51;;;;;;;6.30;2.08;;;;;;;11.34;53.57;99228.28;5133601;27;20039;-40
2022/05/19 02:47:17;;;;;;;2.20;1.75;;;;;;;11.29;52.66;99219.84;5151025;27;20133;-39
2022/05/19 02:49:43;;;;;;;1.85;1.60;;;;;;;11.19;53.05;99200.34;5152582;27;20175;-39
2022/05/19 02:52:08;;;;;;;1.88;1.48;;;;;;;11.17;53.33;99194.34;5121880;27;20039;-40
2022/05/19 02:54:34;;;;;;;3.13;1.90;;;;;;;11.14;53.15;99197.09;5114067;27;20053;-40
2022/05/19 02:57:00;;;;;;;2.40;1.50;;;;;;;11.14;53.17;99207.50;5134159;27;20026;-40
2022/05/19 02:59:26;;;;;;;3.45;1.70;;;;;;;11.23;52.99;99209.69;5134132;27;20039;-40
2022/05/19 03:01:52;;;;;;;5.43;1.65;;;;;;;11.34;52.79;99207.47;5141072;27;20043;-39
2022/05/19 03:04:18;;;;;;;3.60;1.77;;;;;;;11.50;52.75;99202.41;5134034;27;20076;-40
2022/05/19 03:06:44;;;;;;;3.33;1.40;;;;;;;11.66;52.42;99221.63;5153097;27;20038;-39
2022/05/19 03:09:10;;;;;;;2.42;1.50;;;;;;;11.67;52.02;99217.25;5138301;27;20059;-39
2022/05/19 03:11:35;;;;;;;3.15;1.70;;;;;;;11.70;52.06;99211.91;5144345;27;20045;-40
2022/05/19 03:14:04;;;;;;;3.05;1.70;;;;;;;11.76;51.96;99216.84;5132688;27;20506;-39
2022/05/19 03:16:30;;;;;;;3.70;1.90;;;;;;;11.81;52.07;99220.94;5114685;27;20042;-40
2022/05/19 03:18:56;;;;;;;1.70;1.50;;;;;;;11.82;51.47;99195.72;5136898;27;20045;-40
2022/05/19 03:21:21;;;;;;;2.10;1.58;;;;;;;11.95;51.87;99209.84;5134432;27;20038;-43
2022/05/19 03:23:47;;;;;;;1.90;1.60;;;;;;;11.95;51.29;99209.00;5133547;27;20076;-39
2022/05/19 03:26:13;;;;;;;5.13;1.42;;;;;;;11.98;51.21;99201.91;5132877;27;20042;-39
2022/05/19 03:28:39;;;;;;;2.45;1.70;;;;;;;11.99;51.54;99203.56;5128756;27;20129;-39
2022/05/19 03:31:04;;;;;;;7.00;1.80;;;;;;;12.09;51.58;99196.19;5139859;27;20510;-39
2022/05/19 03:33:31;;;;;;;3.72;1.70;;;;;;;12.10;51.58;99193.50;5135591;27;20041;-39
2022/05/19 03:35:58;;;;;;;7.03;2.80;;;;;;;12.22;51.50;99200.72;5132374;27;20122;-40
2022/05/19 03:38:25;;;;;;;2.10;1.52;;;;;;;12.27;50.99;99197.88;5135030;27;20514;-40
2022/05/19 03:40:51;;;;;;;2.47;1.80;;;;;;;12.38;51.35;99205.19;5132367;27;20537;-40
2022/05/19 03:43:17;;;;;;;3.22;1.45;;;;;;;12.40;50.74;99216.38;5147113;27;20045;-40
2022/05/19 03:45:45;;;;;;;2.90;1.58;;;;;;;12.41;50.41;99213.69;5138328;27;20046;-40
2022/05/19 03:48:12;;;;;;;4.47;1.80;;;;;;;12.47;50.36;99220.34;5150619;27;20693;-39
2022/05/19 03:50:38;;;;;;;4.32;1.92;;;;;;;12.19;50.67;99200.88;5140930;27;20030;-39
2022/05/19 03:53:04;;;;;;;3.03;1.70;;;;;;;12.11;50.93;99228.22;5148578;27;20041;-39
2022/05/19 03:55:30;;;;;;;4.65;2.13;;;;;;;11.93;51.57;99239.50;5150499;27;20463;-39
2022/05/19 03:57:57;;;;;;;6.50;1.40;;;;;;;11.73;51.58;99228.25;5122625;27;20126;-40
2022/05/19 04:00:23;;;;;;;3.83;1.58;;;;;;;11.78;51.81;99234.09;5131988;27;20590;-40
2022/05/19 04:02:50;;;;;;;2.47;1.52;;;;;;;11.85;51.41;99232.03;5145953;27;20125;-39
2022/05/19 04:05:15;;;;;;;3.15;1.70;;;;;;;11.95;51.91;99235.06;5151321;27;20125;-39
2022/05/19 04:07:42;;;;;;;4.75;1.73;;;;;;;12.09;51.97;99228.28;5150792;27;20420;-40
2022/05/19 04:10:09;;;;;;;5.88;1.60;;;;;;;12.18;52.13;99233.06;5152634;27;20034;-40
2022/05/19 04:12:36;;;;;;;2.60;2.07;;;;;;;12.30;52.33;99236.81;5148681;27;20065;-40
2022/05/19 04:15:03;;;;;;;3.13;1.70;;;;;;;12.25;51.87;99233.59;5131817;27;20806;-40
2022/05/19 04:17:33;;;;;;;3.35;2.05;;;;;;;12.32;52.39;99225.41;5142248;27;20099;-41
2022/05/19 04:20:05;;;;;;;3.47;2.03;;;;;;;12.48;52.54;99224.66;5152376;27;20058;-39
2022/05/19 04:22:31;;;;;;;4.75;1.70;;;;;;;12.66;52.78;99226.38;5130674;27;20150;-40
2022/05/19 04:25:00;;;;;;;3.22;1.60;;;;;;;12.84;52.46;99227.19;5131856;28;20502;-40
2022/05/19 04:27:27;;;;;;;2.67;1.60;;;;;;;12.90;52.53;99229.50;5121037;27;20570;-39
2022/05/19 04:29:54;;;;;;;5.60;2.00;;;;;;;12.91;52.64;99228.56;5136125;27;20517;-40
2022/05/19 04:32:20;;;;;;;2.25;1.70;;;;;;;12.86;52.80;99244.47;5136965;27;20047;-39
2022/05/19 04:34:47;;;;;;;4.65;1.88;;;;;;;12.82;52.99;99240.34;5135962;27;20077;-40
2022/05/19 04:37:13;;;;;;;2.08;1.50;;;;;;;12.64;53.13;99221.22;5136240;27;20067;-40
2022/05/19 04:39:39;;;;;;;3.67;1.80;;;;;;;12.69;54.16;99245.31;5135720;27;20047;-40
2022/05/19 04:42:09;;;;;;;2.65;1.60;;;;;;;12.59;54.56;99241.47;5137946;27;20047;-40
2022/05/19 04:44:35;;;;;;;11.20;5.82;;;;;;;12.52;55.52;99242.69;5135967;27;20030;-40
2022/05/19 04:47:01;;;;;;;2.28;1.85;;;;;;;12.50;56.26;99241.94;5118154;27;20043;-40
2022/05/19 04:49:27;;;;;;;3.60;1.70;;;;;;;12.60;56.53;99247.53;5135768;27;20027;-40
2022/05/19 04:51:53;;;;;;;12.32;4.80;;;;;;;12.67;57.13;99243.69;5136653;27;20046;-40
2022/05/19 04:54:19;;;;;;;3.13;2.13;;;;;;;12.74;57.04;99252.91;5131667;27;20038;-40
2022/05/19 04:56:46;;;;;;;3.63;2.00;;;;;;;12.72;56.89;99239.94;5153612;27;20053;-40
2022/05/19 04:59:16;;;;;;;2.75;1.95;;;;;;;12.71;56.92;99248.69;5155394;27;20035;-40
2022/05/19 05:01:42;;;;;;;3.67;2.28;;;;;;;12.60;57.55;99231.88;5152871;27;20042;-40
2022/05/19 05:04:08;;;;;;;4.93;2.03;;;;;;;12.61;58.05;99254.44;5153168;27;20054;-40
2022/05/19 05:06:34;;;;;;;3.17;2.33;;;;;;;12.63;58.65;99253.44;5126832;27;20061;-40
2022/05/19 05:08:59;;;;;;;4.18;2.00;;;;;;;12.72;59.25;99259.94;5134757;27;20394;-40
2022/05/19 05:11:25;;;;;;;4.88;2.58;;;;;;;12.85;60.00;99250.59;5141353;27;20046;-40
2022/05/19 05:13:51;;;;;;;5.13;3.00;;;;;;;12.80;59.87;99236.94;5152586;27;20043;-40
2022/05/19 05:16:17;;;;;;;3.05;2.10;;;;;;;12.93;60.18;99258.03;5154777;27;20505;-40
2022/05/19 05:18:43;;;;;;;3.05;2.42;;;;;;;12.93;61.06;99251.03;5129770;27;20096;-42
2022/05/19 05:21:13;;;;;;;2.78;1.60;;;;;;;12.88;60.28;99246.97;5135071;27;20042;-40
2022/05/19 05:23:40;;;;;;;4.65;1.73;;;;;;;12.86;59.61;99244.47;5137489;27;20498;-41
2022/05/19 05:26:06;;;;;;;2.95;1.85;;;;;;;12.85;59.59;99252.38;5136405;27;20494;-39
2022/05/19 05:28:33;;;;;;;4.22;1.80;;;;;;;12.91;59.56;99233.78;5132796;27;20039;-39
2022/05/19 05:30:59;;;;;;;3.63;1.70;;;;;;;12.93;58.72;99234.53;5138570;27;20094;-39
2022/05/19 05:33:26;;;;;;;3.03;1.88;;;;;;;12.99;57.99;99237.69;5129987;27;20453;-40
2022/05/19 05:35:53;;;;;;;4.97;2.28;;;;;;;13.07;58.36;99216.44;5150131;27;20505;-40
2022/05/19 05:38:19;;;;;;;4.07;2.88;;;;;;;13.19;58.77;99239.28;5121315;27;20041;-40
2022/05/19 05:40:45;;;;;;;4.80;2.13;;;;;;;13.24;58.41;99234.69;5144888;27;20133;-41
2022/05/19 05:43:16;;;;;;;6.85;2.00;;;;;;;13.35;58.25;99241.94;5135266;27;20043;-39
2022/05/19 05:45:42;;;;;;;5.80;2.80;;;;;;;13.46;57.74;99242.22;5134173;27;20047;-40
2022/05/19 05:48:08;;;;;;;6.28;2.60;;;;;;;13.48;58.12;99245.63;5135553;27;20563;-39
2022/05/19 05:50:34;;;;;;;2.13;1.80;;;;;;;13.47;58.27;99247.38;5135586;27;20513;-41
2022/05/19 05:53:00;;;;;;;6.85;2.08;;;;;;;13.39;58.40;99244.34;5134366;27;20065;-39
2022/05/19 05:55:28;;;;;;;5.50;2.13;;;;;;;13.41;58.51;99252.06;5116974;27;20043;-39
2022/05/19 05:57:54;;;;;;;4.75;2.35;;;;;;;13.49;59.06;99236.84;5125000;27;20034;-41
2022/05/19 06:00:20;;;;;;;3.08;2.22;;;;;;;13.78;58.52;99253.56;5140137;27;20473;-41
2022/05/19 06:02:45;;;;;;;3.75;2.40;;;;;;;13.95;58.10;99243.88;5134624;27;20055;-40
2022/05/19 06:05:12;;;;;;;4.13;2.50;;;;;;;13.88;58.88;99244.28;5148897;27;20448;-40
2022/05/19 06:07:39;;;;;;;2.53;2.10;;;;;;;13.81;59.42;99241.19;5115459;27;20031;-40
2022/05/19 06:10:06;;;;;;;5.47;2.42;;;;;;;13.76;59.61;99251.06;5119125;27;20065;-40
2022/05/19 06:12:33;;;;;;;5.03;2.50;;;;;;;13.78;59.79;99248.34;5138393;27;20613;-40
2022/05/19 06:14:59;;;;;;;3.30;2.15;;;;;;;13.84;59.95;99248.00;5141924;27;20413;-41
2022/05/19 06:17:26;;;;;;;2.60;2.13;;;;;;;13.85;60.14;99237.47;5139147;27;20043;-40
2022/05/19 06:19:52;;;;;;;3.40;2.50;;;;;;;13.78;60.30;99236.13;5146149;27;20047;-40
2022/05/19 06:22:19;;;;;;;3.67;2.30;;;;;;;13.78;60.61;99237.88;5153616;27;20406;-39
2022/05/19 06:24:45;;;;;;;5.43;2.70;;;;;;;13.72;60.68;99227.75;5134114;27;20095;-40
2022/05/19 06:27:11;;;;;;;4.63;2.20;;;;;;;13.84;59.90;99238.41;5145499;27;20458;-40
2022/05/19 06:29:36;;;;;;;5.07;3.10;;;;;;;13.99;59.09;99239.31;5135386;27;20035;-40
2022/05/19 06:32:02;;;;;;;5.38;3.60;;;;;;;14.22;58.04;99244.13;5143563;27;20035;-40
2022/05/19 06:34:28;;;;;;;3.65;2.03;;;;;;;14.24;57.86;99242.25;5135429;27;20089;-41
2022/05/19 06:36:56;;;;;;;3.88;2.38;;;;;;;14.17;57.97;99253.16;5147738;27;20039;-41
2022/05/19 06:39:22;;;;;;;5.15;2.40;;;;;;;14.25;57.85;99243.09;5142649;27;20453;-40
2022/05/19 06:42:03;;;;;;;4.68;2.05;;;;;;;14.11;58.03;99240.41;5146301;27;20034;-40
2022/05/19 06:44:36;;;;;;;4.57;2.50;;;;;;;14.08;57.80;99249.25;5137720;27;20046;-41
2022/05/19 06:47:03;;;;;;;5.10;2.30;;;;;;;14.03;58.10;99251.28;5137818;27;20042;-40
2022/05/19 06:49:29;;;;;;;4.22;2.30;;;;;;;14.00;58.68;99254.09;5132769;27;20119;-41
2022/05/19 06:51:55;;;;;;;6.05;2.50;;;;;;;13.97;58.99;99252.47;5141722;27;20034;-40
2022/05/19 06:54:21;;;;;;;6.88;2.53;;;;;;;14.04;59.26;99252.13;5153750;27;20042;-40
2022/05/19 06:56:48;;;;;;;4.97;2.60;;;;;;;14.13;59.67;99254.25;5136621;27;20518;-40
2022/05/19 06:59:17;;;;;;;7.25;2.53;;;;;;;14.10;59.88;99255.25;5139960;27;20039;-40
2022/05/19 07:01:45;;;;;;;6.07;2.92;;;;;;;14.06;60.25;99263.38;5133958;27;20583;-39
2022/05/19 07:04:11;;;;;;;6.13;2.97;;;;;;;14.00;61.34;99254.09;5147558;27;20051;-39
2022/05/19 07:06:37;;;;;;;6.40;2.80;;;;;;;13.89;61.61;99265.13;5123856;27;20076;-40
2022/05/19 07:09:03;;;;;;;5.47;3.20;;;;;;;13.67;62.45;99269.81;5115457;27;20042;-40
2022/05/19 07:11:29;;;;;;;8.07;3.00;;;;;;;13.55;63.42;99270.50;5113432;27;20061;-40
2022/05/19 07:13:59;;;;;;;6.55;2.70;;;;;;;13.40;63.82;99260.81;5115908;27;20027;-40
2022/05/19 07:16:25;;;;;;;5.30;3.13;;;;;;;13.26;64.21;99255.50;5121900;27;20043;-40
2022/05/19 07:18:51;;;;;;;3.60;2.40;;;;;;;13.03;64.51;99236.59;5102742;27;20126;-41
2022/05/19 07:21:18;;;;;;;6.47;2.70;;;;;;;13.08;65.70;99265.09;5123341;27;20031;-40
2022/05/19 07:23:46;;;;;;;5.00;3.42;;;;;;;13.01;66.20;99256.72;5129510;27;20091;-40
2022/05/19 07:26:12;;;;;;;3.53;2.80;;;;;;;13.01;66.67;99259.34;5129813;27;20060;-39
2022/05/19 07:28:38;;;;;;;5.13;3.35;;;;;;;13.12;66.76;99251.84;5132107;27;20038;-40
2022/05/19 07:31:04;;;;;;;5.32;2.78;;;;;;;13.21;66.57;99252.28;5123122;27;20555;-40
2022/05/19 07:33:35;;;;;;;4.10;2.80;;;;;;;13.26;67.48;99258.94;5111726;27;20054;-40
2022/05/19 07:36:00;;;;;;;4.95;3.33;;;;;;;13.32;67.82;99252.56;5111562;28;20046;-41
2022/05/19 07:38:26;;;;;;;5.53;3.13;;;;;;;13.42;68.01;99254.63;5134062;27;20035;-40
2022/05/19 07:40:54;;;;;;;6.15;3.40;;;;;;;13.51;67.58;99235.00;5118396;27;20044;-40
2022/05/19 07:43:41;;;;;;;5.30;3.03;;;;;;;13.75;67.26;99243.28;5121984;27;20121;-41
2022/05/19 07:46:08;;;;;;;5.65;3.10;;;;;;;13.81;67.44;99253.41;5122409;27;20092;-40
2022/05/19 07:48:35;;;;;;;7.22;3.20;;;;;;;13.85;67.63;99241.88;5122536;27;20035;-43
2022/05/19 07:51:02;;;;;;;4.63;2.90;;;;;;;13.94;67.80;99242.19;5118327;27;20080;-40
2022/05/19 07:53:28;;;;;;;5.70;3.00;;;;;;;14.07;66.98;99236.31;5119841;27;20547;-40
2022/05/19 07:55:54;;;;;;;4.25;2.95;;;;;;;14.11;66.33;99228.19;5121033;27;20043;-41
2022/05/19 07:58:21;;;;;;;6.03;3.90;;;;;;;14.41;65.80;99243.94;5119006;27;20046;-47
2022/05/19 08:00:47;;;;;;;8.32;3.40;;;;;;;14.76;65.21;99234.91;5120475;27;20546;-48
2022/05/19 08:03:17;;;;;;;4.55;3.10;;;;;;;15.24;63.98;99239.00;5121096;27;20058;-48
2022/05/19 08:05:43;;;;;;;5.47;3.30;;;;;;;15.81;62.54;99240.78;5138954;27;20043;-44
2022/05/19 08:08:09;;;;;;;4.00;3.17;;;;;;;16.17;61.21;99232.38;5146935;27;20061;-42
2022/05/19 08:10:35;;;;;;;6.18;3.75;;;;;;;16.55;59.58;99235.97;5126819;27;20038;-42
2022/05/19 08:15:47;;;;;;;4.22;2.95;;;;;;;17.52;57.28;99229.34;5151005;27;20099;-42
2022/05/19 08:18:19;;;;;;;4.32;2.92;;;;;;;18.35;54.07;99219.84;5129619;27;20039;-43
2022/05/19 08:20:51;;;;;;;4.65;2.80;;;;;;;19.04;51.36;99218.19;5123702;27;20043;-44
2022/05/19 08:23:19;;;;;;;5.18;3.20;;;;;;;19.77;49.44;99217.75;5143925;27;20144;-44
2022/05/19 08:25:46;;;;;;;;;;;;;;;20.39;47.19;99219.78;5140733;27;20043;-42
2022/05/19 08:28:14;;;;;;;4.88;2.80;;;;;;;20.96;45.39;99222.88;5129544;27;20297;-42
2022/05/19 08:30:44;;;;;;;3.83;3.17;;;;;;;21.84;43.43;99224.97;5138912;27;20146;-42
2022/05/19 08:33:11;;;;;;;5.00;2.60;;;;;;;22.22;41.94;99222.47;5126843;28;20118;-43
2022/05/19 08:35:55;;;;;;;3.95;2.50;;;;;;;22.28;39.48;99231.66;5146414;27;20593;-42
2022/05/19 08:41:13;;;;;;;4.45;2.65;;;;;;;21.72;42.32;99228.72;5139722;27;20054;-42
2022/05/19 08:43:42;;;;;;;3.67;2.53;;;;;;;22.21;41.32;99218.13;5122048;27;20467;-43
2022/05/19 08:46:17;;;;;;;4.57;2.90;;;;;;;21.68;42.66;99220.19;5131765;27;20069;-43
2022/05/19 08:48:43;;;;;;;5.60;3.15;;;;;;;22.98;40.11;99218.13;5132716;27;20115;-42
2022/05/19 08:51:11;;;;;;;5.25;3.03;;;;;;;24.49;36.62;99215.09;5123796;27;20038;-44
2022/05/19 08:53:41;;;;;;;2.80;2.22;;;;;;;24.95;35.60;99218.47;5123746;27;20035;-44
2022/05/19 08:56:25;;;;;;;4.55;2.97;;;;;;;25.07;35.46;99204.75;5140936;27;20047;-43
2022/05/19 08:59:03;;;;;;;4.45;3.00;;;;;;;25.30;34.39;99199.75;5139915;27;20467;-42
2022/05/19 09:01:50;;;;;;;4.30;3.03;;;;;;;25.58;34.35;99205.75;5122858;27;20425;-44
2022/05/19 09:04:40;;;;;;;4.53;3.17;;;;;;;26.70;31.08;99211.53;5103635;28;20059;-44
2022/05/19 09:10:08;;;;;;;5.30;2.40;;;;;;;27.28;29.96;99212.16;5134937;27;20046;-43
2022/05/19 09:12:37;;;;;;;2.67;2.30;;;;;;;27.07;30.59;99216.38;5116958;27;20510;-45
2022/05/19 09:15:06;;;;;;;5.43;4.07;;;;;;;27.07;30.68;99214.53;5153249;27;20062;-43
2022/05/19 09:17:37;;;;;;;7.40;5.43;;;;;;;26.87;30.67;99218.56;5114757;27;20042;-42
2022/05/19 09:20:08;;;;;;;6.78;5.18;;;;;;;26.82;29.99;99211.03;5116853;27;20043;-44
2022/05/19 09:22:34;;;;;;;9.82;7.50;;;;;;;26.65;30.00;99214.69;5126981;27;20043;-46
2022/05/19 09:25:20;;;;;;;4.63;1.95;;;;;;;27.18;28.17;99208.00;5119296;27;20544;-42
2022/05/19 09:27:49;;;;;;;2.63;1.75;;;;;;;26.88;28.70;99205.06;5147233;27;20395;-44
2022/05/19 09:30:29;;;;;;;4.65;2.70;;;;;;;26.66;29.16;99195.03;5128808;27;20039;-43
2022/05/19 09:32:56;;;;;;;3.08;1.92;;;;;;;27.14;28.63;99201.34;5140216;27;20089;-42
2022/05/19 09:35:34;;;;;;;1.90;1.70;;;;;;;25.76;28.93;99193.16;5154965;27;20111;-45
2022/05/19 09:38:12;;;;;;;2.72;2.00;;;;;;;24.99;30.74;99185.25;5136911;27;20049;-47
2022/05/19 09:40:40;;;;;;;2.25;1.63;;;;;;;24.74;30.95;99194.84;5144967;27;20043;-40
2022/05/19 09:43:22;;;;;;;3.17;2.00;;;;;;;24.02;31.91;99187.88;5132014;27;20102;-43
2022/05/19 09:46:03;;;;;;;4.63;1.90;;;;;;;24.59;31.28;99185.78;5136587;27;20114;-41
2022/05/19 09:48:33;;;;;;;2.60;1.63;;;;;;;24.77;30.40;99187.41;5123683;27;20591;-43
2022/05/19 09:51:09;;;;;;;2.72;1.45;;;;;;;26.73;27.05;99182.69;5131572;27;20031;-42
2022/05/19 09:53:54;;;;;;;10.77;5.68;;;;;;;28.62;26.15;99178.94;5139456;27;20042;-41
2022/05/19 09:56:22;;;;;;;3.92;1.85;;;;;;;30.31;23.60;99185.22;5146536;27;20472;-43
2022/05/19 09:58:51;;;;;;;1.95;1.75;;;;;;;31.56;22.00;99179.00;5152812;27;20042;-42
2022/05/19 10:01:34;;;;;;;8.35;2.40;;;;;;;32.51;21.90;99183.47;5134443;27;20051;-41
2022/05/19 10:04:02;;;;;;;1.80;1.58;;;;;;;32.83;20.98;99184.56;5138129;27;20490;-43
2022/05/19 10:06:36;;;;;;;6.93;1.57;;;;;;;33.39;19.70;99176.84;5114700;27;20038;-43
2022/05/19 10:09:15;;;;;;;3.15;1.45;;;;;;;31.49;21.03;99174.63;5145487;27;20080;-42
2022/05/19 10:12:05;;;;;;;4.85;2.10;;;;;;;29.89;23.47;99173.41;5126376;27;20058;-43
2022/05/19 10:14:32;;;;;;;8.57;5.80;;;;;;;29.76;24.62;99170.56;5115607;27;20042;-42
2022/05/19 10:20:24;;;;;;;7.47;1.80;;;;;;;28.61;24.99;99163.06;5133716;27;20035;-42
2022/05/19 10:23:05;;;;;;;51.78;8.18;;;;;;;27.90;25.84;99166.88;5137838;27;20083;-43
2022/05/19 10:25:48;;;;;;;62.25;6.38;;;;;;;29.36;23.74;99168.41;5153665;27;20038;-43
2022/05/19 10:31:18;;;;;;;126.60;11.88;;;;;;;27.68;25.24;99152.47;5120337;27;20108;-44
2022/05/19 10:34:08;;;;;;;65.60;6.65;;;;;;;28.42;25.04;99152.88;5133200;27;20050;-42
2022/05/19 10:36:54;;;;;;;4.95;1.45;;;;;;;28.33;24.81;99140.56;5134237;27;20098;-42
2022/05/19 10:39:32;;;;;;;8.48;2.80;;;;;;;28.37;24.61;99148.03;5151328;27;20052;-42
2022/05/19 10:42:16;;;;;;;3.25;1.90;;;;;;;29.76;23.48;99143.78;5137102;27;20406;-42
2022/05/19 10:45:17;;;;;;;5.00;2.22;;;;;;;31.19;22.13;99154.41;5131736;27;20061;-43
2022/05/19 10:47:58;;;;;;;4.63;3.28;;;;;;;31.45;22.05;99152.72;5136732;27;20039;-42
2022/05/19 10:50:29;;;;;;;8.38;4.35;;;;;;;30.15;23.02;99151.44;5150897;27;20070;-43
2022/05/19 10:53:07;;;;;;;12.02;2.83;;;;;;;31.03;22.16;99152.88;5133368;27;20545;-42
2022/05/19 10:55:49;;;;;;;9.57;2.20;;;;;;;32.57;19.71;99152.22;5142796;27;20039;-43
2022/05/19 10:58:23;;;;;;;4.28;1.85;;;;;;;33.58;19.26;99134.69;5134002;27;20070;-42
2022/05/19 11:01:01;;;;;;;5.43;3.10;;;;;;;34.41;18.19;99149.81;5134680;27;20508;-43
2022/05/19 11:03:53;;;;;;;8.35;2.42;;;;;;;34.27;17.85;99148.28;5137065;27;20513;-42
2022/05/19 11:06:24;;;;;;;3.15;2.42;;;;;;;34.24;18.35;99140.59;5132868;27;20054;-43
2022/05/19 11:08:57;;;;;;;8.63;1.90;;;;;;;34.44;18.44;99133.16;5114578;27;20088;-43
2022/05/19 11:11:33;;;;;;;2.85;1.88;;;;;;;32.97;19.47;99118.06;5117872;27;20099;-42
2022/05/19 11:14:10;;;;;;;8.85;2.10;;;;;;;32.08;19.92;99128.34;5113978;27;20047;-43
2022/05/19 11:17:01;;;;;;;4.72;2.45;;;;;;;30.53;20.96;99129.75;5132238;27;20074;-43
2022/05/19 11:19:34;;;;;;;6.47;1.70;;;;;;;29.39;22.34;99126.00;5134065;27;20133;-41
2022/05/19 11:22:23;;;;;;;4.95;2.72;;;;;;;28.50;23.02;99121.53;5117489;27;20038;-42
2022/05/19 11:27:53;;;;;;;12.48;2.53;;;;;;;30.94;20.65;99114.56;5152737;27;20570;-43
2022/05/19 11:30:22;;;;;;;9.98;1.65;;;;;;;30.69;21.11;99116.03;5117301;27;20035;-42
2022/05/19 11:32:50;;;;;;;2.10;1.75;;;;;;;30.66;20.79;99119.97;5114081;27;20055;-43
2022/05/19 11:35:29;;;;;;;3.58;1.63;;;;;;;30.50;21.14;99114.03;5113527;27;20035;-44
2022/05/19 11:38:20;;;;;;;15.55;3.22;;;;;;;29.67;21.99;99107.38;5113867;27;20039;-42
2022/05/19 11:40:56;;;;;;;13.70;3.03;;;;;;;28.52;22.91;99089.25;5133290;27;20038;-45
2022/05/19 11:43:29;;;;;;;3.38;2.17;;;;;;;27.64;23.59;99099.56;5152919;27;20042;-44
2022/05/19 11:46:00;;;;;;;2.42;1.33;;;;;;;27.02;24.15;99093.28;5152860;27;20027;-44
2022/05/19 11:55:23;;;;;;;4.03;1.48;;;;;;;24.69;26.75;99088.16;5137322;27;20039;-45
2022/05/19 11:58:20;;;;;;;6.40;2.03;;;;;;;23.95;28.01;99088.53;5085093;28;20040;-43
2022/05/19 12:01:03;;;;;;;3.47;1.50;;;;;;;23.62;29.12;99085.53;5101275;27;20134;-43
2022/05/19 12:03:43;;;;;;;2.83;1.70;;;;;;;23.88;28.91;99084.78;5121704;27;20043;-42
2022/05/19 12:06:10;;;;;;;3.67;1.40;;;;;;;24.16;28.79;99082.91;5123690;27;20039;-42
2022/05/19 12:08:42;;;;;;;7.47;2.22;;;;;;;24.46;29.32;99080.69;5152596;27;20379;-43
2022/05/19 12:11:36;;;;;;;7.35;3.13;;;;;;;24.48;29.34;99078.72;5130535;27;20042;-49
2022/05/19 12:14:25;;;;;;;8.05;1.50;;;;;;;23.64;29.57;99069.47;5131836;27;20035;-42